createdAt,value
2018-04-28T00:00:22.803Z,8.50
2018-04-28T00:01:22.679Z,8.44
2018-04-28T00:02:22.554Z,8.35
2018-04-28T00:03:22.427Z,8.39
2018-04-28T00:04:22.301Z,8.33
2018-04-28T00:05:22.177Z,8.30
2018-04-28T00:06:22.050Z,8.28
2018-04-28T00:07:21.924Z,8.30
2018-04-28T00:08:21.797Z,8.39
2018-04-28T00:09:21.673Z,8.37
2018-04-28T00:10:21.591Z,8.32
2018-04-28T00:11:21.420Z,8.37
2018-04-28T00:12:21.295Z,8.37
2018-04-28T00:13:21.167Z,8.29
2018-04-28T00:14:21.045Z,8.26
2018-04-28T00:15:20.919Z,8.32
2018-04-28T00:16:20.790Z,8.30
2018-04-28T00:17:20.665Z,8.33
2018-04-28T00:18:20.540Z,8.30
2018-04-28T00:19:20.415Z,8.26
2018-04-28T00:20:20.289Z,8.29
2018-04-28T00:21:20.165Z,8.26
2018-04-28T00:22:20.035Z,8.30
2018-04-28T00:23:19.913Z,8.25
2018-04-28T00:24:19.784Z,8.29
2018-04-28T00:25:19.659Z,8.32
2018-04-28T00:26:19.536Z,8.36
2018-04-28T00:27:19.408Z,8.39
2018-04-28T00:28:19.280Z,8.37
2018-04-28T00:29:19.157Z,8.32
2018-04-28T00:30:19.030Z,8.37
2018-04-28T00:31:18.904Z,8.33
2018-04-28T00:32:18.780Z,8.30
2018-04-28T00:33:18.653Z,8.26
2018-04-28T00:34:18.525Z,8.22
2018-04-28T00:35:18.402Z,8.14
2018-04-28T00:36:18.282Z,8.14
2018-04-28T00:37:18.147Z,8.17
2018-04-28T00:38:18.024Z,8.20
2018-04-28T00:39:17.897Z,8.22
2018-04-28T00:40:17.771Z,8.11
2018-04-28T00:41:17.646Z,8.14
2018-04-28T00:42:17.519Z,8.15
2018-04-28T00:43:17.393Z,8.11
2018-04-28T00:44:17.269Z,8.14
2018-04-28T00:45:17.141Z,8.17
2018-04-28T00:46:17.016Z,8.11
2018-04-28T00:47:16.895Z,8.20
2018-04-28T00:48:16.765Z,8.10
2018-04-28T00:49:16.638Z,8.12
2018-04-28T00:50:16.511Z,8.14
2018-04-28T00:51:16.395Z,8.18
2018-04-28T00:52:16.260Z,8.18
2018-04-28T00:53:16.134Z,8.10
2018-04-28T00:54:16.009Z,8.20
2018-04-28T00:55:15.882Z,8.15
2018-04-28T00:56:15.757Z,8.20
2018-04-28T00:57:15.628Z,8.17
2018-04-28T00:58:15.504Z,8.26
2018-04-28T00:59:15.376Z,8.20
2018-04-28T01:00:15.252Z,8.18
2018-04-28T01:01:15.124Z,8.25
2018-04-28T01:02:15.000Z,8.25
2018-04-28T01:03:14.875Z,8.25
2018-04-28T01:04:14.746Z,8.25
2018-04-28T01:05:14.620Z,8.21
2018-04-28T01:06:14.494Z,8.26
2018-04-28T01:07:14.369Z,8.21
2018-04-28T01:08:14.244Z,8.20
2018-04-28T01:09:14.118Z,8.18
2018-04-28T01:10:13.991Z,8.12
2018-04-28T01:11:13.865Z,8.15
2018-04-28T01:12:13.736Z,8.21
2018-04-28T01:13:13.613Z,8.14
2018-04-28T01:14:13.487Z,8.18
2018-04-28T01:15:13.360Z,8.20
2018-04-28T01:16:13.234Z,8.20
2018-04-28T01:17:13.110Z,8.22
2018-04-28T01:18:12.983Z,8.30
2018-04-28T01:19:12.856Z,8.30
2018-04-28T01:20:12.732Z,8.25
2018-04-28T01:21:12.605Z,8.25
2018-04-28T01:22:12.480Z,8.25
2018-04-28T01:23:12.352Z,8.32
2018-04-28T01:24:12.226Z,8.26
2018-04-28T01:25:12.101Z,8.21
2018-04-28T01:26:11.975Z,8.14
2018-04-28T01:27:11.851Z,8.15
2018-04-28T01:28:11.726Z,8.11
2018-04-28T01:29:11.597Z,8.17
2018-04-28T01:30:11.471Z,8.11
2018-04-28T01:31:11.345Z,8.14
2018-04-28T01:32:11.223Z,8.12
2018-04-28T01:33:11.095Z,8.07
2018-04-28T01:34:10.971Z,8.17
2018-04-28T01:35:10.842Z,8.12
2018-04-28T01:36:10.717Z,8.12
2018-04-28T01:37:10.591Z,8.18
2018-04-28T01:38:10.465Z,8.11
2018-04-28T01:39:10.340Z,8.00
2018-04-28T01:40:10.215Z,8.07
2018-04-28T01:41:10.086Z,8.11
2018-04-28T01:42:09.962Z,8.00
2018-04-28T01:43:09.840Z,8.17
2018-04-28T01:44:09.715Z,8.11
2018-04-28T01:45:09.584Z,8.10
2018-04-28T01:46:09.457Z,8.08
2018-04-28T01:47:09.331Z,8.11
2018-04-28T01:48:09.206Z,8.20
2018-04-28T01:49:09.080Z,8.20
2018-04-28T01:50:08.952Z,8.20
2018-04-28T01:51:08.827Z,8.12
2018-04-28T01:52:08.701Z,8.17
2018-04-28T01:53:08.576Z,8.12
2018-04-28T01:54:08.450Z,8.17
2018-04-28T01:55:08.324Z,8.04
2018-04-28T01:56:08.196Z,8.04
2018-04-28T01:57:08.070Z,8.07
2018-04-28T01:58:07.947Z,8.07
2018-04-28T01:59:07.821Z,8.02
2018-04-28T02:00:07.694Z,8.03
2018-04-28T02:01:07.567Z,8.22
2018-04-28T02:02:07.439Z,8.14
2018-04-28T02:03:07.316Z,8.33
2018-04-28T02:04:07.190Z,8.53
2018-04-28T02:05:07.064Z,8.66
2018-04-28T02:06:06.939Z,8.55
2018-04-28T02:07:06.812Z,8.39
2018-04-28T02:08:06.686Z,8.36
2018-04-28T02:09:06.557Z,8.30
2018-04-28T02:10:06.434Z,8.32
2018-04-28T02:11:06.307Z,8.32
2018-04-28T02:12:06.182Z,8.26
2018-04-28T02:13:06.056Z,8.11
2018-04-28T02:14:05.929Z,8.33
2018-04-28T02:15:05.804Z,8.30
2018-04-28T02:16:05.676Z,8.30
2018-04-28T02:17:05.550Z,8.21
2018-04-28T02:18:05.422Z,8.17
2018-04-28T02:19:05.297Z,7.94
2018-04-28T02:20:05.171Z,7.93
2018-04-28T02:21:05.045Z,7.87
2018-04-28T02:22:04.924Z,7.96
2018-04-28T02:23:04.795Z,7.93
2018-04-28T02:24:04.669Z,7.84
2018-04-28T02:25:04.540Z,7.81
2018-04-28T02:26:04.415Z,7.79
2018-04-28T02:27:04.288Z,7.85
2018-04-28T02:28:04.163Z,7.78
2018-04-28T02:29:04.037Z,7.71
2018-04-28T02:30:03.913Z,7.69
2018-04-28T02:31:03.784Z,7.77
2018-04-28T02:32:03.663Z,7.72
2018-04-28T02:33:03.530Z,7.69
2018-04-28T02:34:03.407Z,7.75
2018-04-28T02:35:03.277Z,7.78
2018-04-28T02:36:03.153Z,7.78
2018-04-28T02:37:03.027Z,7.75
2018-04-28T02:38:02.902Z,7.82
2018-04-28T02:39:02.776Z,7.82
2018-04-28T02:40:02.650Z,7.78
2018-04-28T02:41:02.524Z,7.79
2018-04-28T02:42:02.399Z,7.79
2018-04-28T02:43:02.282Z,7.79
2018-04-28T02:44:02.147Z,7.90
2018-04-28T02:45:02.021Z,7.84
2018-04-28T02:46:01.892Z,7.89
2018-04-28T02:47:01.765Z,7.77
2018-04-28T02:48:01.641Z,7.82
2018-04-28T02:49:01.515Z,7.84
2018-04-28T02:50:01.391Z,7.87
2018-04-28T02:51:01.271Z,7.72
2018-04-28T02:52:01.136Z,7.56
2018-04-28T02:53:01.012Z,7.69
2018-04-28T02:54:00.884Z,7.67
2018-04-28T02:55:00.757Z,7.56
2018-04-28T02:56:00.631Z,7.67
2018-04-28T02:57:00.505Z,7.63
2018-04-28T02:58:00.377Z,7.62
2018-04-28T02:59:00.251Z,7.62
2018-04-28T03:00:00.127Z,7.62
2018-04-28T03:00:59.997Z,7.67
2018-04-28T03:01:59.883Z,7.71
2018-04-28T03:02:59.747Z,7.74
2018-04-28T03:03:59.622Z,7.67
2018-04-28T03:04:59.496Z,7.63
2018-04-28T03:05:59.369Z,7.71
2018-04-28T03:06:59.241Z,7.58
2018-04-28T03:07:59.118Z,7.62
2018-04-28T03:08:58.988Z,7.72
2018-04-28T03:09:58.864Z,7.72
2018-04-28T03:10:58.738Z,7.69
2018-04-28T03:11:58.613Z,7.63
2018-04-28T03:12:58.482Z,7.79
2018-04-28T03:13:58.357Z,7.67
2018-04-28T03:14:58.232Z,7.69
2018-04-28T03:15:58.106Z,7.66
2018-04-28T03:16:57.983Z,7.67
2018-04-28T03:17:57.889Z,7.59
2018-04-28T03:18:57.728Z,7.71
2018-04-28T03:19:57.601Z,7.72
2018-04-28T03:20:57.471Z,7.71
2018-04-28T03:21:57.347Z,7.63
2018-04-28T03:22:57.220Z,7.67
2018-04-28T03:23:57.093Z,7.67
2018-04-28T03:24:56.967Z,7.59
2018-04-28T03:25:56.842Z,7.59
2018-04-28T03:26:56.715Z,7.56
2018-04-28T03:27:56.591Z,7.67
2018-04-28T03:28:56.468Z,7.71
2018-04-28T03:29:56.338Z,7.69
2018-04-28T03:30:56.210Z,7.60
2018-04-28T03:31:56.088Z,7.67
2018-04-28T03:32:55.956Z,7.67
2018-04-28T03:33:55.830Z,7.59
2018-04-28T03:34:55.704Z,7.62
2018-04-28T03:35:55.580Z,7.58
2018-04-28T03:36:55.504Z,7.56
2018-04-28T03:37:55.324Z,7.58
2018-04-28T03:38:55.198Z,7.62
2018-04-28T03:39:55.074Z,7.63
2018-04-28T03:40:54.943Z,7.62
2018-04-28T03:41:54.819Z,7.71
2018-04-28T03:42:54.693Z,7.59
2018-04-28T03:43:54.565Z,7.75
2018-04-28T03:44:54.436Z,7.72
2018-04-28T03:45:54.312Z,7.60
2018-04-28T03:46:54.185Z,7.71
2018-04-28T03:47:54.061Z,7.71
2018-04-28T03:48:53.932Z,7.63
2018-04-28T03:49:53.804Z,7.67
2018-04-28T03:50:53.680Z,7.71
2018-04-28T03:51:53.555Z,7.79
2018-04-28T03:52:53.428Z,7.69
2018-04-28T03:53:53.301Z,7.77
2018-04-28T03:54:53.174Z,7.63
2018-04-28T03:55:53.048Z,7.71
2018-04-28T03:56:52.920Z,7.78
2018-04-28T03:57:52.794Z,7.79
2018-04-28T03:58:52.670Z,7.82
2018-04-28T03:59:52.543Z,7.84
2018-04-28T04:00:52.414Z,7.93
2018-04-28T04:01:52.293Z,7.87
2018-04-28T04:02:52.164Z,7.89
2018-04-28T04:03:52.038Z,7.84
2018-04-28T04:04:51.911Z,7.84
2018-04-28T04:05:51.780Z,7.94
2018-04-28T04:06:51.658Z,7.94
2018-04-28T04:07:51.529Z,7.94
2018-04-28T04:08:51.407Z,7.96
2018-04-28T04:09:51.277Z,8.07
2018-04-28T04:10:51.152Z,7.90
2018-04-28T04:11:51.026Z,8.02
2018-04-28T04:12:50.898Z,8.00
2018-04-28T04:13:50.771Z,7.99
2018-04-28T04:14:50.647Z,8.12
2018-04-28T04:15:50.523Z,8.10
2018-04-28T04:16:50.394Z,8.12
2018-04-28T04:17:50.268Z,8.14
2018-04-28T04:18:50.140Z,8.15
2018-04-28T04:19:50.014Z,8.02
2018-04-28T04:20:49.886Z,8.03
2018-04-28T04:21:49.762Z,8.02
2018-04-28T04:22:49.635Z,8.00
2018-04-28T04:23:49.514Z,8.03
2018-04-28T04:24:49.384Z,7.96
2018-04-28T04:25:49.261Z,8.03
2018-04-28T04:26:49.130Z,8.04
2018-04-28T04:27:49.005Z,8.08
2018-04-28T04:28:48.877Z,8.10
2018-04-28T04:29:48.751Z,8.03
2018-04-28T04:30:48.625Z,8.08
2018-04-28T04:31:48.576Z,8.10
2018-04-28T04:32:48.375Z,8.08
2018-04-28T04:33:48.247Z,8.04
2018-04-28T04:34:48.123Z,7.99
2018-04-28T04:35:47.997Z,8.18
2018-04-28T04:36:47.869Z,8.18
2018-04-28T04:37:47.823Z,8.04
2018-04-28T04:38:47.617Z,8.03
2018-04-28T04:39:47.489Z,8.10
2018-04-28T04:40:47.365Z,8.02
2018-04-28T04:41:47.239Z,8.10
2018-04-28T04:42:47.113Z,8.10
2018-04-28T04:43:46.987Z,8.07
2018-04-28T04:44:46.865Z,7.99
2018-04-28T04:45:46.734Z,8.08
2018-04-28T04:46:46.609Z,8.11
2018-04-28T04:47:46.483Z,8.20
2018-04-28T04:48:46.356Z,8.11
2018-04-28T04:49:46.230Z,8.12
2018-04-28T04:50:46.104Z,8.07
2018-04-28T04:51:45.979Z,8.02
2018-04-28T04:52:45.852Z,7.92
2018-04-28T04:53:45.726Z,7.97
2018-04-28T04:54:45.601Z,8.04
2018-04-28T04:55:45.479Z,8.15
2018-04-28T04:56:45.348Z,8.20
2018-04-28T04:57:45.224Z,8.10
2018-04-28T04:58:45.100Z,8.11
2018-04-28T04:59:44.973Z,8.22
2018-04-28T05:00:44.847Z,8.28
2018-04-28T05:01:44.718Z,8.40
2018-04-28T05:02:44.593Z,8.44
2018-04-28T05:03:44.471Z,8.48
2018-04-28T05:04:44.343Z,8.45
2018-04-28T05:05:44.213Z,8.45
2018-04-28T05:06:44.091Z,8.58
2018-04-28T05:07:43.969Z,8.54
2018-04-28T05:08:43.837Z,8.50
2018-04-28T05:09:43.712Z,8.69
2018-04-28T05:10:43.589Z,8.99
2018-04-28T05:11:43.461Z,9.24
2018-04-28T05:12:43.336Z,9.32
2018-04-28T05:13:43.211Z,9.39
2018-04-28T05:14:43.083Z,9.32
2018-04-28T05:15:42.961Z,9.43
2018-04-28T05:16:42.831Z,9.46
2018-04-28T05:17:42.706Z,9.30
2018-04-28T05:18:42.582Z,9.32
2018-04-28T05:19:42.460Z,9.42
2018-04-28T05:20:42.334Z,9.50
2018-04-28T05:21:42.209Z,9.53
2018-04-28T05:22:42.085Z,9.66
2018-04-28T05:23:41.963Z,9.66
2018-04-28T05:24:41.833Z,9.68
2018-04-28T05:25:41.711Z,9.64
2018-04-28T05:26:41.583Z,9.70
2018-04-28T05:27:41.460Z,9.66
2018-04-28T05:28:41.338Z,9.66
2018-04-28T05:29:41.214Z,9.73
2018-04-28T05:30:41.083Z,9.86
2018-04-28T05:31:40.960Z,10.10
2018-04-28T05:32:40.835Z,10.03
2018-04-28T05:33:40.710Z,10.19
2018-04-28T05:34:40.585Z,10.28
2018-04-28T05:35:40.463Z,10.37
2018-04-28T05:36:40.337Z,10.47
2018-04-28T05:37:40.212Z,10.63
2018-04-28T05:38:40.091Z,10.84
2018-04-28T05:39:39.964Z,10.84
2018-04-28T05:40:39.840Z,10.91
2018-04-28T05:41:39.717Z,11.01
2018-04-28T05:42:39.594Z,11.07
2018-04-28T05:43:39.474Z,11.09
2018-04-28T05:44:39.344Z,11.19
2018-04-28T05:45:39.225Z,11.13
2018-04-28T05:46:39.100Z,11.24
2018-04-28T05:47:38.971Z,11.13
2018-04-28T05:48:38.851Z,11.13
2018-04-28T05:49:38.726Z,11.24
2018-04-28T05:50:38.600Z,11.21
2018-04-28T05:51:38.479Z,11.21
2018-04-28T05:52:38.356Z,11.25
2018-04-28T05:53:38.230Z,11.24
2018-04-28T05:54:38.108Z,11.29
2018-04-28T05:55:37.985Z,11.38
2018-04-28T05:56:37.861Z,11.43
2018-04-28T05:57:37.739Z,11.35
2018-04-28T05:58:37.617Z,11.35
2018-04-28T05:59:37.492Z,11.31
2018-04-28T06:00:37.367Z,11.14
2018-04-28T06:01:37.245Z,11.38
2018-04-28T06:02:37.121Z,11.36
2018-04-28T06:03:37.003Z,11.43
2018-04-28T06:04:36.877Z,11.43
2018-04-28T06:05:36.753Z,11.54
2018-04-28T06:06:36.631Z,11.68
2018-04-28T06:07:36.517Z,11.78
2018-04-28T06:08:36.382Z,11.83
2018-04-28T06:09:36.258Z,11.78
2018-04-28T06:10:36.135Z,12.02
2018-04-28T06:11:36.014Z,12.09
2018-04-28T06:12:35.891Z,12.21
2018-04-28T06:13:35.769Z,12.33
2018-04-28T06:14:35.646Z,12.34
2018-04-28T06:15:35.525Z,12.45
2018-04-28T06:16:35.399Z,12.66
2018-04-28T06:17:35.276Z,12.75
2018-04-28T06:18:35.155Z,12.69
2018-04-28T06:19:35.032Z,12.71
2018-04-28T06:20:34.907Z,12.75
2018-04-28T06:21:34.785Z,12.77
2018-04-28T06:22:34.667Z,12.75
2018-04-28T06:23:34.542Z,12.93
2018-04-28T06:24:34.420Z,12.92
2018-04-28T06:25:34.296Z,13.07
2018-04-28T06:26:34.175Z,13.06
2018-04-28T06:27:34.055Z,13.09
2018-04-28T06:28:33.929Z,13.24
2018-04-28T06:29:33.808Z,13.27
2018-04-28T06:30:33.687Z,13.37
2018-04-28T06:31:33.565Z,13.49
2018-04-28T06:32:33.447Z,13.51
2018-04-28T06:33:33.317Z,13.58
2018-04-28T06:34:33.197Z,13.59
2018-04-28T06:35:33.073Z,13.59
2018-04-28T06:36:32.951Z,13.63
2018-04-28T06:37:32.831Z,13.52
2018-04-28T06:38:32.709Z,13.43
2018-04-28T06:39:32.585Z,13.44
2018-04-28T06:40:32.463Z,13.63
2018-04-28T06:41:32.353Z,13.83
2018-04-28T06:42:32.222Z,13.80
2018-04-28T06:43:32.100Z,13.87
2018-04-28T06:44:31.976Z,13.95
2018-04-28T06:45:31.854Z,14.04
2018-04-28T06:46:31.733Z,14.19
2018-04-28T06:47:31.610Z,14.20
2018-04-28T06:48:31.566Z,14.02
2018-04-28T06:49:31.369Z,13.91
2018-04-28T06:50:31.249Z,13.81
2018-04-28T06:51:31.124Z,13.91
2018-04-28T06:52:31.003Z,14.06
2018-04-28T06:53:30.879Z,14.10
2018-04-28T06:54:30.761Z,14.24
2018-04-28T06:55:30.639Z,14.25
2018-04-28T06:56:30.518Z,14.31
2018-04-28T06:57:30.396Z,14.42
2018-04-28T06:58:30.360Z,14.35
2018-04-28T06:59:30.155Z,14.47
2018-04-28T07:00:30.032Z,14.47
2018-04-28T07:01:29.909Z,14.47
2018-04-28T07:02:29.789Z,14.53
2018-04-28T07:03:29.669Z,14.75
2018-04-28T07:04:29.570Z,14.84
2018-04-28T07:05:29.424Z,14.90
2018-04-28T07:06:29.306Z,15.08
2018-04-28T07:07:29.186Z,15.06
2018-04-28T07:08:29.062Z,15.15
2018-04-28T07:09:28.944Z,15.36
2018-04-28T07:10:28.819Z,15.28
2018-04-28T07:11:28.701Z,15.27
2018-04-28T07:12:28.578Z,15.28
2018-04-28T07:13:28.460Z,15.42
2018-04-28T07:14:28.336Z,15.36
2018-04-28T07:15:28.216Z,15.38
2018-04-28T07:16:28.096Z,15.57
2018-04-28T07:17:27.977Z,15.13
2018-04-28T07:18:27.862Z,15.31
2018-04-28T07:19:27.734Z,15.24
2018-04-28T07:20:27.613Z,15.43
2018-04-28T07:21:27.494Z,15.68
2018-04-28T07:22:27.373Z,15.84
2018-04-28T07:23:27.253Z,15.86
2018-04-28T07:24:27.131Z,15.92
2018-04-28T07:25:27.011Z,16.07
2018-04-28T07:26:26.891Z,15.89
2018-04-28T07:27:26.768Z,15.93
2018-04-28T07:28:26.650Z,15.93
2018-04-28T07:29:26.529Z,15.94
2018-04-28T07:30:26.417Z,16.00
2018-04-28T07:31:26.290Z,16.09
2018-04-28T07:32:26.170Z,16.06
2018-04-28T07:33:26.048Z,16.14
2018-04-28T07:34:25.927Z,16.25
2018-04-28T07:35:25.808Z,16.63
2018-04-28T07:36:25.686Z,16.58
2018-04-28T07:37:25.568Z,16.16
2018-04-28T07:38:25.449Z,16.41
2018-04-28T07:39:25.329Z,16.59
2018-04-28T07:40:25.206Z,16.74
2018-04-28T07:41:25.089Z,16.63
2018-04-28T07:42:25.031Z,16.63
2018-04-28T07:43:24.852Z,16.38
2018-04-28T07:44:24.730Z,16.30
2018-04-28T07:45:24.610Z,16.09
2018-04-28T07:46:24.490Z,16.11
2018-04-28T07:47:24.371Z,16.41
2018-04-28T07:48:24.251Z,16.68
2018-04-28T07:49:24.131Z,16.88
2018-04-28T07:50:24.013Z,16.65
2018-04-28T07:51:23.894Z,16.55
2018-04-28T07:52:23.772Z,16.42
2018-04-28T07:53:23.654Z,16.22
2018-04-28T07:54:23.535Z,16.31
2018-04-28T07:55:23.416Z,16.31
2018-04-28T07:56:23.298Z,16.26
2018-04-28T07:57:23.178Z,16.18
2018-04-28T07:58:23.056Z,16.35
2018-04-28T07:59:22.939Z,16.44
2018-04-28T08:00:22.832Z,16.68
2018-04-28T08:01:22.699Z,16.56
2018-04-28T08:02:22.580Z,16.40
2018-04-28T08:03:22.462Z,16.18
2018-04-28T08:04:22.339Z,16.20
2018-04-28T08:05:22.222Z,16.11
2018-04-28T08:06:22.105Z,16.40
2018-04-28T08:07:21.982Z,16.65
2018-04-28T08:08:21.864Z,16.65
2018-04-28T08:09:21.746Z,16.90
2018-04-28T08:10:21.658Z,16.83
2018-04-28T08:11:21.507Z,16.75
2018-04-28T08:12:21.385Z,16.85
2018-04-28T08:13:21.268Z,16.80
2018-04-28T08:14:21.148Z,16.63
2018-04-28T08:15:21.061Z,16.56
2018-04-28T08:16:20.908Z,16.68
2018-04-28T08:17:20.791Z,16.78
2018-04-28T08:18:20.674Z,16.78
2018-04-28T08:19:20.555Z,16.75
2018-04-28T08:20:20.433Z,16.75
2018-04-28T08:21:20.315Z,16.75
2018-04-28T08:22:20.198Z,16.93
2018-04-28T08:23:20.077Z,16.85
2018-04-28T08:24:19.957Z,16.81
2018-04-28T08:25:19.838Z,17.00
2018-04-28T08:26:19.719Z,17.08
2018-04-28T08:27:19.600Z,17.23
2018-04-28T08:28:19.479Z,17.33
2018-04-28T08:29:19.362Z,17.26
2018-04-28T08:30:19.249Z,17.20
2018-04-28T08:31:19.123Z,17.00
2018-04-28T08:32:19.004Z,17.04
2018-04-28T08:33:18.886Z,17.13
2018-04-28T08:34:18.766Z,16.98
2018-04-28T08:35:18.645Z,17.25
2018-04-28T08:36:18.527Z,17.35
2018-04-28T08:37:18.506Z,17.29
2018-04-28T08:38:18.290Z,17.30
2018-04-28T08:39:18.173Z,17.41
2018-04-28T08:40:18.057Z,17.29
2018-04-28T08:41:17.934Z,17.26
2018-04-28T08:42:17.816Z,17.11
2018-04-28T08:43:17.696Z,17.03
2018-04-28T08:44:17.576Z,17.06
2018-04-28T08:45:17.457Z,17.04
2018-04-28T08:46:17.341Z,16.90
2018-04-28T08:47:17.222Z,17.06
2018-04-28T08:48:17.101Z,17.15
2018-04-28T08:49:16.982Z,17.00
2018-04-28T08:50:16.863Z,16.98
2018-04-28T08:51:16.744Z,16.90
2018-04-28T08:52:16.625Z,17.08
2018-04-28T08:53:16.505Z,17.00
2018-04-28T08:54:16.389Z,16.95
2018-04-28T08:55:16.267Z,17.03
2018-04-28T08:56:16.147Z,17.29
2018-04-28T08:57:16.032Z,17.67
2018-04-28T08:58:15.910Z,17.92
2018-04-28T08:59:15.792Z,18.21
2018-04-28T09:00:15.675Z,18.39
2018-04-28T09:01:15.554Z,18.25
2018-04-28T09:02:15.438Z,18.43
2018-04-28T09:03:15.315Z,18.49
2018-04-28T09:04:15.199Z,18.59
2018-04-28T09:05:15.081Z,18.54
2018-04-28T09:06:14.963Z,18.73
2018-04-28T09:07:14.845Z,18.87
2018-04-28T09:08:14.727Z,19.01
2018-04-28T09:09:14.608Z,19.25
2018-04-28T09:10:14.487Z,19.02
2018-04-28T09:11:14.372Z,19.01
2018-04-28T09:12:14.253Z,18.55
2018-04-28T09:13:14.135Z,18.50
2018-04-28T09:14:14.018Z,18.43
2018-04-28T09:15:13.901Z,18.52
2018-04-28T09:16:13.781Z,18.76
2018-04-28T09:17:13.665Z,18.43
2018-04-28T09:18:13.545Z,17.73
2018-04-28T09:19:13.427Z,17.59
2018-04-28T09:20:13.311Z,17.70
2018-04-28T09:21:13.194Z,17.64
2018-04-28T09:22:13.076Z,17.73
2018-04-28T09:23:12.958Z,17.85
2018-04-28T09:24:12.838Z,17.63
2018-04-28T09:25:12.719Z,18.17
2018-04-28T09:26:12.744Z,18.28
2018-04-28T09:27:12.486Z,18.47
2018-04-28T09:28:12.369Z,18.47
2018-04-28T09:29:12.250Z,18.29
2018-04-28T09:30:12.129Z,18.42
2018-04-28T09:31:12.012Z,18.22
2018-04-28T09:32:11.893Z,18.09
2018-04-28T09:33:11.776Z,18.47
2018-04-28T09:34:11.658Z,18.18
2018-04-28T09:35:11.539Z,18.43
2018-04-28T09:36:11.421Z,18.70
2018-04-28T09:37:11.302Z,19.06
2018-04-28T09:38:11.187Z,19.29
2018-04-28T09:39:11.068Z,19.72
2018-04-28T09:40:10.948Z,19.39
2018-04-28T09:41:10.832Z,18.82
2018-04-28T09:42:10.714Z,18.55
2018-04-28T09:43:10.598Z,18.27
2018-04-28T09:44:10.481Z,18.36
2018-04-28T09:45:10.360Z,18.29
2018-04-28T09:46:10.243Z,18.39
2018-04-28T09:47:10.125Z,18.55
2018-04-28T09:48:10.018Z,18.98
2018-04-28T09:49:09.890Z,18.76
2018-04-28T09:50:09.771Z,18.50
2018-04-28T09:51:09.654Z,18.42
2018-04-28T09:52:09.537Z,18.86
2018-04-28T09:53:09.418Z,18.98
2018-04-28T09:54:09.300Z,18.70
2018-04-28T09:55:09.184Z,18.47
2018-04-28T09:56:09.063Z,18.03
2018-04-28T09:57:08.947Z,17.76
2018-04-28T09:58:08.833Z,17.95
2018-04-28T09:59:08.714Z,17.66
2018-04-28T10:00:08.592Z,17.48
2018-04-28T10:01:08.475Z,17.33
2018-04-28T10:02:08.356Z,17.26
2018-04-28T10:03:08.244Z,17.32
2018-04-28T10:04:08.122Z,17.50
2018-04-28T10:05:08.004Z,17.79
2018-04-28T10:06:07.885Z,18.02
2018-04-28T10:07:07.765Z,18.10
2018-04-28T10:08:07.648Z,17.78
2018-04-28T10:09:07.532Z,17.64
2018-04-28T10:10:07.410Z,17.28
2018-04-28T10:11:07.293Z,17.14
2018-04-28T10:12:07.173Z,17.14
2018-04-28T10:13:07.054Z,17.13
2018-04-28T10:14:06.936Z,16.83
2018-04-28T10:15:06.817Z,16.80
2018-04-28T10:16:06.701Z,16.78
2018-04-28T10:17:06.581Z,16.71
2018-04-28T10:18:06.461Z,16.62
2018-04-28T10:19:06.344Z,16.53
2018-04-28T10:20:06.236Z,16.45
2018-04-28T10:21:06.102Z,16.40
2018-04-28T10:22:05.985Z,16.40
2018-04-28T10:23:05.866Z,16.41
2018-04-28T10:24:05.746Z,16.40
2018-04-28T10:25:05.630Z,16.31
2018-04-28T10:26:05.505Z,16.18
2018-04-28T10:27:05.387Z,16.09
2018-04-28T10:28:05.269Z,16.12
2018-04-28T10:29:05.147Z,16.11
2018-04-28T10:30:05.028Z,16.20
2018-04-28T10:31:04.913Z,16.35
2018-04-28T10:32:04.789Z,16.37
2018-04-28T10:33:04.669Z,16.40
2018-04-28T10:34:04.548Z,16.34
2018-04-28T10:35:04.428Z,16.49
2018-04-28T10:36:04.310Z,16.41
2018-04-28T10:37:04.187Z,16.56
2018-04-28T10:38:04.071Z,16.80
2018-04-28T10:39:03.948Z,16.73
2018-04-28T10:40:03.829Z,16.60
2018-04-28T10:41:03.708Z,16.63
2018-04-28T10:42:03.589Z,16.67
2018-04-28T10:43:03.474Z,16.70
2018-04-28T10:44:03.347Z,16.48
2018-04-28T10:45:03.228Z,16.40
2018-04-28T10:46:03.110Z,16.49
2018-04-28T10:47:02.989Z,16.56
2018-04-28T10:48:02.867Z,16.86
2018-04-28T10:49:02.750Z,16.75
2018-04-28T10:50:02.630Z,16.96
2018-04-28T10:51:02.511Z,17.30
2018-04-28T10:52:02.390Z,17.55
2018-04-28T10:53:02.275Z,17.59
2018-04-28T10:54:02.151Z,17.62
2018-04-28T10:55:02.033Z,17.38
2018-04-28T10:56:01.912Z,17.30
2018-04-28T10:57:01.796Z,17.36
2018-04-28T10:58:01.672Z,17.67
2018-04-28T10:59:01.556Z,17.94
2018-04-28T11:00:01.435Z,18.03
2018-04-28T11:01:01.317Z,18.04
2018-04-28T11:02:01.198Z,18.21
2018-04-28T11:03:01.080Z,18.59
2018-04-28T11:04:00.960Z,18.90
2018-04-28T11:05:00.843Z,19.06
2018-04-28T11:06:00.723Z,19.21
2018-04-28T11:07:00.681Z,19.33
2018-04-28T11:08:00.487Z,19.38
2018-04-28T11:09:00.367Z,19.24
2018-04-28T11:10:00.250Z,19.17
2018-04-28T11:11:00.136Z,19.38
2018-04-28T11:12:00.019Z,19.32
2018-04-28T11:12:59.897Z,19.94
2018-04-28T11:13:59.777Z,19.15
2018-04-28T11:14:59.661Z,19.10
2018-04-28T11:15:59.544Z,19.18
2018-04-28T11:16:59.431Z,19.13
2018-04-28T11:17:59.311Z,19.05
2018-04-28T11:18:59.194Z,19.38
2018-04-28T11:19:59.099Z,19.79
2018-04-28T11:20:58.959Z,19.70
2018-04-28T11:21:58.841Z,19.91
2018-04-28T11:22:58.725Z,19.43
2018-04-28T11:23:58.607Z,19.54
2018-04-28T11:24:58.493Z,19.42
2018-04-28T11:25:58.376Z,19.79
2018-04-28T11:26:58.258Z,20.24
2018-04-28T11:27:58.141Z,20.96
2018-04-28T11:28:58.024Z,21.36
2018-04-28T11:29:57.909Z,21.82
2018-04-28T11:30:57.792Z,22.07
2018-04-28T11:31:57.725Z,21.42
2018-04-28T11:32:57.642Z,20.15
2018-04-28T11:33:57.444Z,19.79
2018-04-28T11:34:57.327Z,20.33
2018-04-28T11:35:57.209Z,20.56
2018-04-28T11:36:57.095Z,21.14
2018-04-28T11:37:56.978Z,21.60
2018-04-28T11:38:56.864Z,21.67
2018-04-28T11:39:56.747Z,20.69
2018-04-28T11:40:56.632Z,21.08
2018-04-28T11:41:56.517Z,20.43
2018-04-28T11:42:56.403Z,20.49
2018-04-28T11:43:56.283Z,20.51
2018-04-28T11:44:56.169Z,20.28
2018-04-28T11:45:56.052Z,20.69
2018-04-28T11:46:55.939Z,20.93
2018-04-28T11:47:55.822Z,21.34
2018-04-28T11:48:55.710Z,21.01
2018-04-28T11:49:55.592Z,20.74
2018-04-28T11:50:55.477Z,20.42
2018-04-28T11:51:55.361Z,20.16
2018-04-28T11:52:55.247Z,19.39
2018-04-28T11:53:55.134Z,19.46
2018-04-28T11:54:55.022Z,20.31
2018-04-28T11:55:54.899Z,20.43
2018-04-28T11:56:54.784Z,20.09
2018-04-28T11:57:54.671Z,20.34
2018-04-28T11:58:54.579Z,20.06
2018-04-28T11:59:54.438Z,19.70
2018-04-28T12:00:54.319Z,19.61
2018-04-28T12:01:54.206Z,19.84
2018-04-28T12:02:54.087Z,18.76
2018-04-28T12:03:53.972Z,18.15
2018-04-28T12:04:53.856Z,18.03
2018-04-28T12:05:53.739Z,17.69
2018-04-28T12:06:53.622Z,17.81
2018-04-28T12:07:53.505Z,17.84
2018-04-28T12:08:53.387Z,17.99
2018-04-28T12:09:53.278Z,18.07
2018-04-28T12:10:53.155Z,18.17
2018-04-28T12:11:53.037Z,18.49
2018-04-28T12:12:52.920Z,18.36
2018-04-28T12:13:52.801Z,18.03
2018-04-28T12:14:52.689Z,18.39
2018-04-28T12:15:52.565Z,19.05
2018-04-28T12:16:52.449Z,19.73
2018-04-28T12:17:52.333Z,19.20
2018-04-28T12:18:52.216Z,18.79
2018-04-28T12:19:52.099Z,18.37
2018-04-28T12:20:51.980Z,18.39
2018-04-28T12:21:51.862Z,18.40
2018-04-28T12:22:51.745Z,18.40
2018-04-28T12:23:51.626Z,18.82
2018-04-28T12:24:51.510Z,18.59
2018-04-28T12:25:51.391Z,18.58
2018-04-28T12:26:51.277Z,18.49
2018-04-28T12:27:51.155Z,19.01
2018-04-28T12:28:51.037Z,19.15
2018-04-28T12:29:50.959Z,19.20
2018-04-28T12:30:50.809Z,19.36
2018-04-28T12:31:50.691Z,19.51
2018-04-28T12:32:50.570Z,19.54
2018-04-28T12:33:50.451Z,19.66
2018-04-28T12:34:50.333Z,19.40
2018-04-28T12:35:50.216Z,19.14
2018-04-28T12:36:50.103Z,18.80
2018-04-28T12:37:49.982Z,18.36
2018-04-28T12:38:49.865Z,18.09
2018-04-28T12:39:49.748Z,17.69
2018-04-28T12:40:49.629Z,17.87
2018-04-28T12:41:49.518Z,17.82
2018-04-28T12:42:49.397Z,17.84
2018-04-28T12:43:49.279Z,17.94
2018-04-28T12:44:49.161Z,17.82
2018-04-28T12:45:49.041Z,17.74
2018-04-28T12:46:48.926Z,18.00
2018-04-28T12:47:48.807Z,18.22
2018-04-28T12:48:48.688Z,18.31
2018-04-28T12:49:48.572Z,18.65
2018-04-28T12:50:48.468Z,18.94
2018-04-28T12:51:48.336Z,18.68
2018-04-28T12:52:48.216Z,18.49
2018-04-28T12:53:48.102Z,18.68
2018-04-28T12:54:47.981Z,18.50
2018-04-28T12:55:47.867Z,18.43
2018-04-28T12:56:47.747Z,18.37
2018-04-28T12:57:47.632Z,18.34
2018-04-28T12:58:47.557Z,18.42
2018-04-28T12:59:47.392Z,18.70
2018-04-28T13:00:47.275Z,19.18
2018-04-28T13:01:47.159Z,19.17